sensor_id;sensor_type;location;lat;lon;timestamp;pressure;altitude;pressure_sealevel;temperature;humidity
59170;BME280;52474;52.236;5.114;2022-07-10T00:02:16;102825.16;;;14.65;100.00
59170;BME280;52474;52.236;5.114;2022-07-10T00:04:42;102802.09;;;14.51;100.00
59170;BME280;52474;52.236;5.114;2022-07-10T00:07:07;102793.25;;;14.51;100.00
59170;BME280;52474;52.236;5.114;2022-07-10T00:09:33;102800.50;;;14.49;100.00
59170;BME280;52474;52.236;5.114;2022-07-10T00:11:59;102803.94;;;14.51;100.00
59170;BME280;52474;52.236;5.114;2022-07-10T00:14:24;102805.97;;;14.47;100.00
59170;BME280;52474;52.236;5.114;2022-07-10T00:16:50;102810.97;;;14.39;100.00
59170;BME280;52474;52.236;5.114;2022-07-10T00:19:16;102802.13;;;14.26;100.00
59170;BME280;52474;52.236;5.114;2022-07-10T00:21:42;102810.22;;;14.24;100.00
59170;BME280;52474;52.236;5.114;2022-07-10T00:24:08;102801.94;;;14.16;100.00
59170;BME280;52474;52.236;5.114;2022-07-10T00:26:35;102805.22;;;14.07;100.00
59170;BME280;52474;52.236;5.114;2022-07-10T00:29:01;102802.56;;;13.94;100.00
59170;BME280;52474;52.236;5.114;2022-07-10T00:31:27;102817.47;;;13.96;100.00
59170;BME280;52474;52.236;5.114;2022-07-10T00:33:53;102783.66;;;13.71;100.00
59170;BME280;52474;52.236;5.114;2022-07-10T00:36:18;102818.75;;;13.91;100.00
59170;BME280;52474;52.236;5.114;2022-07-10T00:38:44;102815.22;;;13.90;100.00
59170;BME280;52474;52.236;5.114;2022-07-10T00:41:10;102792.53;;;13.85;100.00
59170;BME280;52474;52.236;5.114;2022-07-10T00:43:55;102795.41;;;13.94;100.00
59170;BME280;52474;52.236;5.114;2022-07-10T00:46:22;102781.34;;;13.92;100.00
59170;BME280;52474;52.236;5.114;2022-07-10T00:48:48;102788.47;;;14.05;100.00
59170;BME280;52474;52.236;5.114;2022-07-10T00:51:16;102802.03;;;14.14;100.00
59170;BME280;52474;52.236;5.114;2022-07-10T00:53:45;102799.47;;;14.26;100.00
59170;BME280;52474;52.236;5.114;2022-07-10T00:56:12;102806.19;;;14.31;100.00
59170;BME280;52474;52.236;5.114;2022-07-10T00:58:39;102796.28;;;14.33;100.00
59170;BME280;52474;52.236;5.114;2022-07-10T01:01:07;102799.38;;;14.40;100.00
59170;BME280;52474;52.236;5.114;2022-07-10T01:03:33;102799.75;;;14.47;100.00
59170;BME280;52474;52.236;5.114;2022-07-10T01:05:58;102790.06;;;14.46;100.00
59170;BME280;52474;52.236;5.114;2022-07-10T01:08:25;102798.16;;;14.57;100.00
59170;BME280;52474;52.236;5.114;2022-07-10T01:10:51;102787.31;;;14.60;100.00
59170;BME280;52474;52.236;5.114;2022-07-10T01:13:16;102788.69;;;14.66;100.00
59170;BME280;52474;52.236;5.114;2022-07-10T01:15:42;102775.91;;;14.58;100.00
59170;BME280;52474;52.236;5.114;2022-07-10T01:18:08;102776.94;;;14.68;100.00
59170;BME280;52474;52.236;5.114;2022-07-10T01:20:34;102783.03;;;14.70;100.00
59170;BME280;52474;52.236;5.114;2022-07-10T01:23:01;102754.34;;;14.61;100.00
59170;BME280;52474;52.236;5.114;2022-07-10T01:25:27;102763.19;;;14.62;100.00
59170;BME280;52474;52.236;5.114;2022-07-10T01:27:53;102771.84;;;14.65;100.00
59170;BME280;52474;52.236;5.114;2022-07-10T01:30:19;102761.91;;;14.42;100.00
59170;BME280;52474;52.236;5.114;2022-07-10T01:32:47;102732.00;;;14.12;100.00
59170;BME280;52474;52.236;5.114;2022-07-10T01:35:12;102780.28;;;14.33;100.00
59170;BME280;52474;52.236;5.114;2022-07-10T01:37:39;102764.94;;;14.24;100.00
59170;BME280;52474;52.236;5.114;2022-07-10T01:40:07;102761.97;;;14.16;100.00
59170;BME280;52474;52.236;5.114;2022-07-10T01:42:33;102764.84;;;14.13;100.00
59170;BME280;52474;52.236;5.114;2022-07-10T01:44:58;102767.69;;;14.10;100.00
59170;BME280;52474;52.236;5.114;2022-07-10T01:47:24;102756.63;;;14.03;100.00
59170;BME280;52474;52.236;5.114;2022-07-10T01:49:52;102772.50;;;14.05;100.00
59170;BME280;52474;52.236;5.114;2022-07-10T01:52:19;102757.19;;;13.95;100.00
59170;BME280;52474;52.236;5.114;2022-07-10T01:54:47;102767.69;;;14.10;100.00
59170;BME280;52474;52.236;5.114;2022-07-10T01:57:13;102766.97;;;14.08;100.00
59170;BME280;52474;52.236;5.114;2022-07-10T01:59:39;102762.50;;;14.08;100.00
59170;BME280;52474;52.236;5.114;2022-07-10T02:02:05;102769.44;;;14.11;100.00
59170;BME280;52474;52.236;5.114;2022-07-10T02:04:31;102767.69;;;14.10;100.00
59170;BME280;52474;52.236;5.114;2022-07-10T02:07:10;102753.31;;;14.00;100.00
59170;BME280;52474;52.236;5.114;2022-07-10T02:09:37;102760.03;;;13.92;100.00
59170;BME280;52474;52.236;5.114;2022-07-10T02:12:04;102757.91;;;13.85;100.00
59170;BME280;52474;52.236;5.114;2022-07-10T02:14:30;102759.41;;;13.76;100.00
59170;BME280;52474;52.236;5.114;2022-07-10T02:16:55;102759.16;;;13.66;100.00
59170;BME280;52474;52.236;5.114;2022-07-10T02:19:21;102755.44;;;13.69;100.00
59170;BME280;52474;52.236;5.114;2022-07-10T02:21:47;102755.44;;;13.69;100.00
59170;BME280;52474;52.236;5.114;2022-07-10T02:24:12;102727.53;;;13.49;100.00
59170;BME280;52474;52.236;5.114;2022-07-10T02:26:38;102761.38;;;13.60;100.00
59170;BME280;52474;52.236;5.114;2022-07-10T02:29:04;102755.84;;;13.50;100.00
59170;BME280;52474;52.236;5.114;2022-07-10T02:31:30;102752.88;;;13.55;100.00
59170;BME280;52474;52.236;5.114;2022-07-10T02:33:55;102739.94;;;13.48;100.00
59170;BME280;52474;52.236;5.114;2022-07-10T02:36:21;102754.38;;;13.59;100.00
59170;BME280;52474;52.236;5.114;2022-07-10T02:38:47;102741.25;;;13.56;100.00
59170;BME280;52474;52.236;5.114;2022-07-10T02:41:13;102748.41;;;13.68;100.00
59170;BME280;52474;52.236;5.114;2022-07-10T02:43:38;102734.78;;;13.72;100.00
59170;BME280;52474;52.236;5.114;2022-07-10T02:46:04;102753.09;;;13.90;100.00
59170;BME280;52474;52.236;5.114;2022-07-10T02:48:30;102739.56;;;13.93;100.00
59170;BME280;52474;52.236;5.114;2022-07-10T02:50:55;102748.75;;;14.02;100.00
59170;BME280;52474;52.236;5.114;2022-07-10T02:53:21;102750.03;;;14.09;100.00
59170;BME280;52474;52.236;5.114;2022-07-10T02:55:47;102748.09;;;14.11;100.00
59170;BME280;52474;52.236;5.114;2022-07-10T02:58:13;102754.59;;;14.20;100.00
59170;BME280;52474;52.236;5.114;2022-07-10T03:00:40;102756.84;;;14.26;100.00
59170;BME280;52474;52.236;5.114;2022-07-10T03:03:07;102749.47;;;14.29;100.00
59170;BME280;52474;52.236;5.114;2022-07-10T03:05:33;102758.72;;;14.36;100.00
59170;BME280;52474;52.236;5.114;2022-07-10T03:07:59;102752.22;;;14.41;100.00
59170;BME280;52474;52.236;5.114;2022-07-10T03:10:24;102738.06;;;14.40;100.00
59170;BME280;52474;52.236;5.114;2022-07-10T03:12:50;102736.00;;;14.44;100.00
59170;BME280;52474;52.236;5.114;2022-07-10T03:15:16;102741.25;;;14.45;100.00
59170;BME280;52474;52.236;5.114;2022-07-10T03:17:41;102750.69;;;14.49;100.00
59170;BME280;52474;52.236;5.114;2022-07-10T03:20:08;102736.75;;;14.46;100.00
59170;BME280;52474;52.236;5.114;2022-07-10T03:22:35;102745.16;;;14.52;100.00
59170;BME280;52474;52.236;5.114;2022-07-10T03:25:00;102740.78;;;14.51;100.00
59170;BME280;52474;52.236;5.114;2022-07-10T03:27:26;102734.50;;;14.52;100.00
59170;BME280;52474;52.236;5.114;2022-07-10T03:29:52;102744.13;;;14.55;100.00
59170;BME280;52474;52.236;5.114;2022-07-10T03:32:18;102731.41;;;14.58;100.00
59170;BME280;52474;52.236;5.114;2022-07-10T03:34:43;102711.78;;;14.47;100.00
59170;BME280;52474;52.236;5.114;2022-07-10T03:37:09;102746.25;;;14.63;100.00
59170;BME280;52474;52.236;5.114;2022-07-10T03:39:35;102753.78;;;14.69;100.00
59170;BME280;52474;52.236;5.114;2022-07-10T03:42:00;102739.84;;;14.65;100.00
59170;BME280;52474;52.236;5.114;2022-07-10T03:44:26;102737.91;;;14.67;100.00
59170;BME280;52474;52.236;5.114;2022-07-10T03:46:52;102735.97;;;14.69;100.00
59170;BME280;52474;52.236;5.114;2022-07-10T03:49:17;102726.78;;;14.73;100.00
59170;BME280;52474;52.236;5.114;2022-07-10T03:51:43;102716.00;;;14.75;100.00
59170;BME280;52474;52.236;5.114;2022-07-10T03:54:09;102715.03;;;14.76;100.00
59170;BME280;52474;52.236;5.114;2022-07-10T03:56:35;102716.53;;;14.80;100.00
59170;BME280;52474;52.236;5.114;2022-07-10T03:59:19;102692.56;;;14.67;100.00
59170;BME280;52474;52.236;5.114;2022-07-10T04:01:44;102721.38;;;14.86;100.00
59170;BME280;52474;52.236;5.114;2022-07-10T04:04:10;102698.94;;;14.77;100.00
59170;BME280;52474;52.236;5.114;2022-07-10T04:06:36;102725.44;;;14.92;100.00
59170;BME280;52474;52.236;5.114;2022-07-10T04:09:07;102721.47;;;14.97;100.00
59170;BME280;52474;52.236;5.114;2022-07-10T04:11:33;102685.47;;;14.79;100.00
59170;BME280;52474;52.236;5.114;2022-07-10T04:13:58;102716.03;;;14.99;100.00
59170;BME280;52474;52.236;5.114;2022-07-10T04:16:24;102721.50;;;15.09;100.00
59170;BME280;52474;52.236;5.114;2022-07-10T04:18:50;102716.16;;;15.09;100.00
59170;BME280;52474;52.236;5.114;2022-07-10T04:21:15;102714.88;;;15.14;100.00
59170;BME280;52474;52.236;5.114;2022-07-10T04:23:41;102706.97;;;15.13;100.00
59170;BME280;52474;52.236;5.114;2022-07-10T04:26:07;102709.91;;;15.21;100.00
59170;BME280;52474;52.236;5.114;2022-07-10T04:28:33;102719.03;;;15.30;100.00
59170;BME280;52474;52.236;5.114;2022-07-10T04:30:59;102718.59;;;15.36;100.00
59170;BME280;52474;52.236;5.114;2022-07-10T04:33:27;102712.78;;;15.42;100.00
59170;BME280;52474;52.236;5.114;2022-07-10T04:35:53;102713.00;;;15.39;100.00
59170;BME280;52474;52.236;5.114;2022-07-10T04:38:19;102700.97;;;15.33;100.00
59170;BME280;52474;52.236;5.114;2022-07-10T04:40:44;102708.41;;;15.41;100.00
59170;BME280;52474;52.236;5.114;2022-07-10T04:43:10;102710.84;;;15.44;100.00
59170;BME280;52474;52.236;5.114;2022-07-10T04:45:36;102674.41;;;15.32;100.00
59170;BME280;52474;52.236;5.114;2022-07-10T04:48:06;102710.16;;;15.64;100.00
59170;BME280;52474;52.236;5.114;2022-07-10T04:50:32;102719.31;;;15.84;100.00
59170;BME280;52474;52.236;5.114;2022-07-10T04:52:57;102710.47;;;15.84;100.00
59170;BME280;52474;52.236;5.114;2022-07-10T04:55:23;102718.97;;;15.89;100.00
59170;BME280;52474;52.236;5.114;2022-07-10T04:57:49;102720.06;;;15.98;100.00
59170;BME280;52474;52.236;5.114;2022-07-10T05:00:15;102724.53;;;15.97;100.00
59170;BME280;52474;52.236;5.114;2022-07-10T05:02:41;102722.72;;;15.75;100.00
59170;BME280;52474;52.236;5.114;2022-07-10T05:05:08;102729.16;;;15.73;100.00
59170;BME280;52474;52.236;5.114;2022-07-10T05:07:34;102714.31;;;15.80;100.00
59170;BME280;52474;52.236;5.114;2022-07-10T05:10:00;102720.91;;;15.98;100.00
59170;BME280;52474;52.236;5.114;2022-07-10T05:12:26;102725.53;;;16.07;100.00
59170;BME280;52474;52.236;5.114;2022-07-10T05:14:52;102727.72;;;16.02;100.00
59170;BME280;52474;52.236;5.114;2022-07-10T05:17:18;102728.69;;;15.90;100.00
59170;BME280;52474;52.236;5.114;2022-07-10T05:19:43;102722.13;;;15.83;100.00
59170;BME280;52474;52.236;5.114;2022-07-10T05:22:09;102718.56;;;15.82;100.00
59170;BME280;52474;52.236;5.114;2022-07-10T05:24:35;102727.56;;;15.81;100.00
59170;BME280;52474;52.236;5.114;2022-07-10T05:27:01;102729.06;;;15.85;100.00
59170;BME280;52474;52.236;5.114;2022-07-10T05:29:27;102722.84;;;15.74;100.00
59170;BME280;52474;52.236;5.114;2022-07-10T05:31:53;102714.94;;;15.72;100.00
59170;BME280;52474;52.236;5.114;2022-07-10T05:34:19;102730.13;;;15.83;100.00
59170;BME280;52474;52.236;5.114;2022-07-10T05:36:45;102722.00;;;15.73;100.00
59170;BME280;52474;52.236;5.114;2022-07-10T05:39:10;102712.06;;;15.51;100.00
59170;BME280;52474;52.236;5.114;2022-07-10T05:41:36;102729.81;;;15.63;100.00
59170;BME280;52474;52.236;5.114;2022-07-10T05:44:02;102727.16;;;15.63;100.00
59170;BME280;52474;52.236;5.114;2022-07-10T05:46:27;102726.75;;;15.57;100.00
59170;BME280;52474;52.236;5.114;2022-07-10T05:48:53;102717.66;;;15.48;100.00
59170;BME280;52474;52.236;5.114;2022-07-10T05:51:19;102728.47;;;15.58;100.00
59170;BME280;52474;52.236;5.114;2022-07-10T05:53:45;102691.03;;;15.35;100.00
59170;BME280;52474;52.236;5.114;2022-07-10T05:56:11;102716.19;;;15.44;100.00
59170;BME280;52474;52.236;5.114;2022-07-10T05:58:36;102720.69;;;15.55;100.00
59170;BME280;52474;52.236;5.114;2022-07-10T06:01:02;102725.69;;;15.59;100.00
59170;BME280;52474;52.236;5.114;2022-07-10T06:03:28;102702.84;;;15.55;100.00
59170;BME280;52474;52.236;5.114;2022-07-10T06:05:54;102727.34;;;15.73;100.00
59170;BME280;52474;52.236;5.114;2022-07-10T06:08:20;102716.97;;;15.68;100.00
59170;BME280;52474;52.236;5.114;2022-07-10T06:10:45;102724.44;;;15.87;100.00
59170;BME280;52474;52.236;5.114;2022-07-10T06:13:11;102712.88;;;15.87;100.00
59170;BME280;52474;52.236;5.114;2022-07-10T06:15:38;102729.31;;;16.05;100.00
59170;BME280;52474;52.236;5.114;2022-07-10T06:18:04;102739.63;;;16.09;100.00
59170;BME280;52474;52.236;5.114;2022-07-10T06:20:30;102725.28;;;16.22;100.00
59170;BME280;52474;52.236;5.114;2022-07-10T06:22:57;102724.81;;;16.39;100.00
59170;BME280;52474;52.236;5.114;2022-07-10T06:25:23;102715.91;;;16.39;100.00
59170;BME280;52474;52.236;5.114;2022-07-10T06:27:49;102733.78;;;16.38;100.00
59170;BME280;52474;52.236;5.114;2022-07-10T06:30:15;102731.25;;;16.37;100.00
59170;BME280;52474;52.236;5.114;2022-07-10T06:32:41;102697.97;;;16.29;100.00
59170;BME280;52474;52.236;5.114;2022-07-10T06:35:07;102731.06;;;16.61;100.00
59170;BME280;52474;52.236;5.114;2022-07-10T06:37:33;102734.47;;;16.63;100.00
59170;BME280;52474;52.236;5.114;2022-07-10T06:39:59;102725.34;;;16.65;100.00
59170;BME280;52474;52.236;5.114;2022-07-10T06:42:25;102734.13;;;16.56;100.00
59170;BME280;52474;52.236;5.114;2022-07-10T06:44:57;102730.97;;;16.51;100.00
59170;BME280;52474;52.236;5.114;2022-07-10T06:47:23;102732.66;;;16.63;100.00
59170;BME280;52474;52.236;5.114;2022-07-10T06:50:08;102738.50;;;16.80;100.00
59170;BME280;52474;52.236;5.114;2022-07-10T06:52:35;102734.59;;;16.84;100.00
59170;BME280;52474;52.236;5.114;2022-07-10T06:55:02;102728.53;;;16.82;100.00
59170;BME280;52474;52.236;5.114;2022-07-10T06:57:29;102733.81;;;16.93;100.00
59170;BME280;52474;52.236;5.114;2022-07-10T06:59:55;102717.19;;;16.78;100.00
59170;BME280;52474;52.236;5.114;2022-07-10T07:02:20;102737.75;;;16.89;100.00
59170;BME280;52474;52.236;5.114;2022-07-10T07:04:46;102715.97;;;16.82;100.00
59170;BME280;52474;52.236;5.114;2022-07-10T07:07:13;102729.66;;;17.00;100.00
59170;BME280;52474;52.236;5.114;2022-07-10T07:09:39;102718.97;;;17.00;100.00
59170;BME280;52474;52.236;5.114;2022-07-10T07:12:06;102731.88;;;17.27;100.00
59170;BME280;52474;52.236;5.114;2022-07-10T07:14:32;102736.41;;;17.48;100.00
59170;BME280;52474;52.236;5.114;2022-07-10T07:16:58;102737.44;;;17.56;100.00
59170;BME280;52474;52.236;5.114;2022-07-10T07:19:38;102715.25;;;17.96;100.00
59170;BME280;52474;52.236;5.114;2022-07-10T07:22:23;102726.75;;;18.08;100.00
59170;BME280;52474;52.236;5.114;2022-07-10T07:25:09;102728.63;;;18.17;100.00
59170;BME280;52474;52.236;5.114;2022-07-10T07:27:37;102719.97;;;18.44;100.00
59170;BME280;52474;52.236;5.114;2022-07-10T07:30:04;102724.78;;;18.51;100.00
59170;BME280;52474;52.236;5.114;2022-07-10T07:32:32;102708.69;;;18.51;100.00
59170;BME280;52474;52.236;5.114;2022-07-10T07:35:00;102729.84;;;18.94;100.00
59170;BME280;52474;52.236;5.114;2022-07-10T07:37:39;102728.28;;;19.01;100.00
59170;BME280;52474;52.236;5.114;2022-07-10T07:40:07;102725.81;;;18.59;100.00
59170;BME280;52474;52.236;5.114;2022-07-10T07:42:33;102722.34;;;18.38;100.00
59170;BME280;52474;52.236;5.114;2022-07-10T07:44:59;102723.25;;;18.67;100.00
59170;BME280;52474;52.236;5.114;2022-07-10T07:47:25;102713.16;;;18.40;100.00
59170;BME280;52474;52.236;5.114;2022-07-10T07:49:51;102728.06;;;18.23;100.00
59170;BME280;52474;52.236;5.114;2022-07-10T07:52:17;102716.03;;;18.08;100.00
59170;BME280;52474;52.236;5.114;2022-07-10T07:54:42;102733.84;;;18.09;100.00
59170;BME280;52474;52.236;5.114;2022-07-10T07:57:08;102733.31;;;18.25;100.00
59170;BME280;52474;52.236;5.114;2022-07-10T07:59:34;102733.16;;;18.67;100.00
59170;BME280;52474;52.236;5.114;2022-07-10T08:02:00;102736.38;;;18.51;100.00
59170;BME280;52474;52.236;5.114;2022-07-10T08:04:26;102727.09;;;18.75;100.00
59170;BME280;52474;52.236;5.114;2022-07-10T08:06:52;102715.56;;;18.84;100.00
59170;BME280;52474;52.236;5.114;2022-07-10T08:09:19;102726.31;;;19.23;100.00
59170;BME280;52474;52.236;5.114;2022-07-10T08:11:46;102730.69;;;19.14;100.00
59170;BME280;52474;52.236;5.114;2022-07-10T08:14:13;102727.97;;;19.53;100.00
59170;BME280;52474;52.236;5.114;2022-07-10T08:16:40;102723.47;;;20.38;100.00
59170;BME280;52474;52.236;5.114;2022-07-10T08:19:06;102716.19;;;21.12;100.00
59170;BME280;52474;52.236;5.114;2022-07-10T08:21:32;102718.66;;;21.05;100.00
59170;BME280;52474;52.236;5.114;2022-07-10T08:24:00;102711.78;;;20.20;100.00
59170;BME280;52474;52.236;5.114;2022-07-10T08:26:25;102715.00;;;19.95;100.00
59170;BME280;52474;52.236;5.114;2022-07-10T08:28:51;102708.69;;;21.23;100.00
59170;BME280;52474;52.236;5.114;2022-07-10T08:31:17;102692.97;;;22.90;100.00
59170;BME280;52474;52.236;5.114;2022-07-10T08:33:43;102682.38;;;23.22;99.39
59170;BME280;52474;52.236;5.114;2022-07-10T08:36:08;102697.00;;;23.68;99.45
59170;BME280;52474;52.236;5.114;2022-07-10T08:38:34;102699.09;;;23.09;99.45
59170;BME280;52474;52.236;5.114;2022-07-10T08:41:01;102716.63;;;21.69;100.00
59170;BME280;52474;52.236;5.114;2022-07-10T08:43:30;102705.94;;;20.97;100.00
59170;BME280;52474;52.236;5.114;2022-07-10T08:45:58;102705.50;;;21.02;100.00
59170;BME280;52474;52.236;5.114;2022-07-10T08:48:24;102707.47;;;21.18;100.00
59170;BME280;52474;52.236;5.114;2022-07-10T08:50:54;102708.75;;;21.50;100.00
59170;BME280;52474;52.236;5.114;2022-07-10T08:53:30;102714.09;;;21.41;100.00
59170;BME280;52474;52.236;5.114;2022-07-10T08:55:59;102715.59;;;21.62;100.00
59170;BME280;52474;52.236;5.114;2022-07-10T08:58:26;102711.22;;;21.95;100.00
59170;BME280;52474;52.236;5.114;2022-07-10T09:00:53;102685.44;;;21.67;100.00
59170;BME280;52474;52.236;5.114;2022-07-10T09:03:19;102717.09;;;21.20;100.00
59170;BME280;52474;52.236;5.114;2022-07-10T09:05:45;102709.31;;;20.82;100.00
59170;BME280;52474;52.236;5.114;2022-07-10T09:08:28;102710.81;;;21.56;100.00
59170;BME280;52474;52.236;5.114;2022-07-10T09:11:17;102702.81;;;21.98;100.00
59170;BME280;52474;52.236;5.114;2022-07-10T09:13:53;102703.66;;;22.33;100.00
59170;BME280;52474;52.236;5.114;2022-07-10T09:16:29;102695.66;;;21.81;100.00
59170;BME280;52474;52.236;5.114;2022-07-10T09:18:56;102704.03;;;21.08;100.00
59170;BME280;52474;52.236;5.114;2022-07-10T09:21:23;102683.69;;;20.59;100.00
59170;BME280;52474;52.236;5.114;2022-07-10T09:23:49;102694.56;;;20.68;100.00
59170;BME280;52474;52.236;5.114;2022-07-10T09:26:15;102688.72;;;20.72;100.00
59170;BME280;52474;52.236;5.114;2022-07-10T09:28:41;102687.63;;;20.83;100.00
59170;BME280;52474;52.236;5.114;2022-07-10T09:31:07;102686.56;;;21.38;100.00
59170;BME280;52474;52.236;5.114;2022-07-10T09:33:33;102685.75;;;21.01;100.00
59170;BME280;52474;52.236;5.114;2022-07-10T09:36:10;102686.31;;;21.05;100.00
59170;BME280;52474;52.236;5.114;2022-07-10T09:41:18;102687.81;;;21.70;100.00
59170;BME280;52474;52.236;5.114;2022-07-10T09:43:49;102686.66;;;22.49;100.00
59170;BME280;52474;52.236;5.114;2022-07-10T09:46:16;102677.28;;;22.94;100.00
59170;BME280;52474;52.236;5.114;2022-07-10T09:48:42;102662.84;;;22.44;100.00
59170;BME280;52474;52.236;5.114;2022-07-10T09:51:09;102668.56;;;22.33;100.00
59170;BME280;52474;52.236;5.114;2022-07-10T09:53:40;102685.66;;;22.66;100.00
59170;BME280;52474;52.236;5.114;2022-07-10T09:56:08;102666.09;;;22.05;100.00
59170;BME280;52474;52.236;5.114;2022-07-10T09:58:35;102671.53;;;21.79;100.00
59170;BME280;52474;52.236;5.114;2022-07-10T10:01:05;102656.19;;;22.22;100.00
59170;BME280;52474;52.236;5.114;2022-07-10T10:03:40;102671.34;;;22.66;100.00
59170;BME280;52474;52.236;5.114;2022-07-10T10:06:15;102670.88;;;23.11;100.00
59170;BME280;52474;52.236;5.114;2022-07-10T10:08:48;102668.97;;;22.71;100.00
59170;BME280;52474;52.236;5.114;2022-07-10T10:11:20;102663.09;;;23.08;100.00
59170;BME280;52474;52.236;5.114;2022-07-10T10:13:51;102677.78;;;23.06;100.00
59170;BME280;52474;52.236;5.114;2022-07-10T10:16:19;102668.31;;;23.43;99.83
59170;BME280;52474;52.236;5.114;2022-07-10T10:18:46;102666.19;;;24.79;96.81
59170;BME280;52474;52.236;5.114;2022-07-10T10:21:31;102669.66;;;24.42;93.66
59170;BME280;52474;52.236;5.114;2022-07-10T10:23:58;102675.25;;;24.72;92.71
59170;BME280;52474;52.236;5.114;2022-07-10T10:26:26;102670.28;;;24.75;91.51
59170;BME280;52474;52.236;5.114;2022-07-10T10:28:52;102668.97;;;24.94;91.13
59170;BME280;52474;52.236;5.114;2022-07-10T10:31:23;102671.94;;;23.91;93.74
59170;BME280;52474;52.236;5.114;2022-07-10T10:33:54;102661.78;;;23.85;95.50
59170;BME280;52474;52.236;5.114;2022-07-10T10:39:28;102678.34;;;25.44;86.36
59170;BME280;52474;52.236;5.114;2022-07-10T10:41:54;102684.38;;;24.71;86.75
59170;BME280;52474;52.236;5.114;2022-07-10T10:44:24;102671.72;;;24.63;88.58
59170;BME280;52474;52.236;5.114;2022-07-10T10:49:24;102653.56;;;24.09;90.61
59170;BME280;52474;52.236;5.114;2022-07-10T10:52:00;102672.38;;;24.34;89.28
59170;BME280;52474;52.236;5.114;2022-07-10T10:54:31;102661.66;;;24.49;90.81
59170;BME280;52474;52.236;5.114;2022-07-10T10:57:14;102673.72;;;24.92;89.18
59170;BME280;52474;52.236;5.114;2022-07-10T10:59:47;102673.50;;;24.79;88.48
59170;BME280;52474;52.236;5.114;2022-07-10T11:02:29;102669.59;;;24.81;86.72
59170;BME280;52474;52.236;5.114;2022-07-10T11:07:55;102658.78;;;24.50;87.98
59170;BME280;52474;52.236;5.114;2022-07-10T11:10:31;102664.03;;;25.36;85.43
59170;BME280;52474;52.236;5.114;2022-07-10T11:13:06;102664.72;;;25.38;85.17
59170;BME280;52474;52.236;5.114;2022-07-10T11:15:37;102642.06;;;25.07;86.63
59170;BME280;52474;52.236;5.114;2022-07-10T11:18:05;102657.09;;;24.95;85.38
59170;BME280;52474;52.236;5.114;2022-07-10T11:20:35;102655.94;;;24.12;85.41
59170;BME280;52474;52.236;5.114;2022-07-10T11:25:52;102638.63;;;23.02;90.59
59170;BME280;52474;52.236;5.114;2022-07-10T11:28:53;102677.59;;;22.91;89.96
59170;BME280;52474;52.236;5.114;2022-07-10T11:31:20;102665.94;;;22.90;89.33
59170;BME280;52474;52.236;5.114;2022-07-10T11:33:48;102659.03;;;23.37;89.92
59170;BME280;52474;52.236;5.114;2022-07-10T11:36:19;102663.91;;;24.06;88.47
59170;BME280;52474;52.236;5.114;2022-07-10T11:38:47;102652.00;;;23.67;86.82
59170;BME280;52474;52.236;5.114;2022-07-10T11:41:15;102646.34;;;24.33;88.30
59170;BME280;52474;52.236;5.114;2022-07-10T11:44:01;102638.66;;;24.45;86.22
59170;BME280;52474;52.236;5.114;2022-07-10T11:46:30;102651.75;;;24.33;84.68
59170;BME280;52474;52.236;5.114;2022-07-10T11:48:57;102646.41;;;24.25;84.10
59170;BME280;52474;52.236;5.114;2022-07-10T11:56:27;102640.63;;;25.20;83.70
59170;BME280;52474;52.236;5.114;2022-07-10T11:59:00;102628.09;;;24.81;85.13
59170;BME280;52474;52.236;5.114;2022-07-10T12:01:28;102628.44;;;24.78;86.92
59170;BME280;52474;52.236;5.114;2022-07-10T12:03:59;102618.59;;;25.23;83.41
59170;BME280;52474;52.236;5.114;2022-07-10T12:06:27;102630.28;;;25.00;82.84
59170;BME280;52474;52.236;5.114;2022-07-10T12:08:54;102635.34;;;24.80;83.52
59170;BME280;52474;52.236;5.114;2022-07-10T12:11:21;102631.28;;;25.22;81.88
59170;BME280;52474;52.236;5.114;2022-07-10T12:13:50;102626.47;;;25.47;82.03
59170;BME280;52474;52.236;5.114;2022-07-10T12:16:17;102625.31;;;25.86;83.51
59170;BME280;52474;52.236;5.114;2022-07-10T12:18:43;102615.13;;;25.88;81.59
59170;BME280;52474;52.236;5.114;2022-07-10T12:21:12;102613.28;;;26.10;80.99
59170;BME280;52474;52.236;5.114;2022-07-10T12:23:38;102632.97;;;26.12;79.84
59170;BME280;52474;52.236;5.114;2022-07-10T12:26:10;102630.19;;;25.61;82.05
59170;BME280;52474;52.236;5.114;2022-07-10T12:28:53;102623.25;;;25.44;80.00
59170;BME280;52474;52.236;5.114;2022-07-10T12:31:23;102625.84;;;25.82;80.51
59170;BME280;52474;52.236;5.114;2022-07-10T12:34:00;102601.06;;;25.85;78.28
59170;BME280;52474;52.236;5.114;2022-07-10T12:39:08;102614.72;;;25.91;80.95
59170;BME280;52474;52.236;5.114;2022-07-10T12:41:34;102618.13;;;25.49;82.35
59170;BME280;52474;52.236;5.114;2022-07-10T12:44:00;102623.72;;;26.28;81.02
59170;BME280;52474;52.236;5.114;2022-07-10T12:46:26;102630.00;;;27.15;77.87
59170;BME280;52474;52.236;5.114;2022-07-10T12:49:09;102622.41;;;25.73;79.80
59170;BME280;52474;52.236;5.114;2022-07-10T12:51:46;102620.81;;;25.79;82.56
59170;BME280;52474;52.236;5.114;2022-07-10T12:54:33;102627.94;;;25.80;81.92
59170;BME280;52474;52.236;5.114;2022-07-10T12:57:00;102627.09;;;25.35;84.14
59170;BME280;52474;52.236;5.114;2022-07-10T12:59:27;102617.22;;;25.04;85.21
59170;BME280;52474;52.236;5.114;2022-07-10T13:01:53;102624.97;;;24.38;86.23
59170;BME280;52474;52.236;5.114;2022-07-10T13:04:23;102627.75;;;24.99;86.85
59170;BME280;52474;52.236;5.114;2022-07-10T13:06:50;102601.69;;;25.13;84.65
59170;BME280;52474;52.236;5.114;2022-07-10T13:09:24;102618.09;;;25.34;85.30